Aroma Park, Illinois
Current Conditions -  °F | °C
As of 4:15 AM on Saturday 25 Oct 2014 (Local Time) from KIKK Reporting Station
Scattered Clouds Scattered Clouds  
Wind Chill: 53°   Ceiling: Unl
Heat Index: 53°   Visibility: 10mi
Dew Point: 51°   Wind: 6mph
Humidity: 91%   Direction: 280°W
Pressure: 29.93"   Gusts: NA
Location:  41.08°N, 87.81°W
Report Text: KIKK 250915Z AUTO 28005KT 10SM SCT028 12/11 A2993 RMK AO2 T01190105
Loading
Personal Weather Stations






























Interactive Weather Map
Tropical Storm Tracking
New forecast layout! Learn more

10-Day Weather Forecast

Advertisements
Track Severe Weather on mobile